sensor_id;sensor_type;location;lat;lon;timestamp;pressure;altitude;pressure_sealevel;temperature;humidity
71638;BME280;59485;43.542;-5.676;2023-05-07T00:01:32;101908.75;;;16.66;100.00
71638;BME280;59485;43.542;-5.676;2023-05-07T00:03:57;101908.94;;;16.65;100.00
71638;BME280;59485;43.542;-5.676;2023-05-07T00:06:23;101912.59;;;16.65;100.00
71638;BME280;59485;43.542;-5.676;2023-05-07T00:08:49;101918.78;;;16.67;100.00
71638;BME280;59485;43.542;-5.676;2023-05-07T00:11:14;101874.88;;;16.36;100.00
71638;BME280;59485;43.542;-5.676;2023-05-07T00:13:40;101921.31;;;16.62;100.00
71638;BME280;59485;43.542;-5.676;2023-05-07T00:16:05;101890.06;;;16.47;100.00
71638;BME280;59485;43.542;-5.676;2023-05-07T00:18:31;101916.00;;;16.67;100.00
71638;BME280;59485;43.542;-5.676;2023-05-07T00:20:56;101923.47;;;16.67;100.00
71638;BME280;59485;43.542;-5.676;2023-05-07T00:23:22;101916.88;;;16.68;100.00
71638;BME280;59485;43.542;-5.676;2023-05-07T00:25:48;101900.53;;;16.51;100.00
71638;BME280;59485;43.542;-5.676;2023-05-07T00:28:14;101929.47;;;16.70;100.00
71638;BME280;59485;43.542;-5.676;2023-05-07T00:30:39;101909.19;;;16.63;100.00
71638;BME280;59485;43.542;-5.676;2023-05-07T00:33:05;101927.09;;;16.67;100.00
71638;BME280;59485;43.542;-5.676;2023-05-07T00:35:30;101915.81;;;16.69;100.00
71638;BME280;59485;43.542;-5.676;2023-05-07T00:37:56;101923.25;;;16.68;100.00
71638;BME280;59485;43.542;-5.676;2023-05-07T00:40:21;101916.00;;;16.67;100.00
71638;BME280;59485;43.542;-5.676;2023-05-07T00:42:47;101888.56;;;16.44;100.00
71638;BME280;59485;43.542;-5.676;2023-05-07T00:45:15;101914.06;;;16.61;100.00
71638;BME280;59485;43.542;-5.676;2023-05-07T00:47:41;101913.16;;;16.61;100.00
71638;BME280;59485;43.542;-5.676;2023-05-07T00:50:07;101908.44;;;16.55;100.00
71638;BME280;59485;43.542;-5.676;2023-05-07T00:52:33;101906.75;;;16.54;100.00
71638;BME280;59485;43.542;-5.676;2023-05-07T00:55:04;101907.16;;;16.57;100.00
71638;BME280;59485;43.542;-5.676;2023-05-07T00:57:34;101900.06;;;16.48;100.00
71638;BME280;59485;43.542;-5.676;2023-05-07T01:00:03;101894.50;;;16.41;100.00
71638;BME280;59485;43.542;-5.676;2023-05-07T01:02:29;101897.25;;;16.41;100.00
71638;BME280;59485;43.542;-5.676;2023-05-07T01:04:55;101908.84;;;16.51;100.00
71638;BME280;59485;43.542;-5.676;2023-05-07T01:07:22;101910.41;;;16.33;100.00
71638;BME280;59485;43.542;-5.676;2023-05-07T01:09:48;101914.13;;;16.19;100.00
71638;BME280;59485;43.542;-5.676;2023-05-07T01:12:13;101904.31;;;16.16;100.00
71638;BME280;59485;43.542;-5.676;2023-05-07T01:14:39;101906.88;;;16.18;100.00
71638;BME280;59485;43.542;-5.676;2023-05-07T01:17:05;101890.81;;;16.06;100.00
71638;BME280;59485;43.542;-5.676;2023-05-07T01:19:31;101897.00;;;16.08;100.00
71638;BME280;59485;43.542;-5.676;2023-05-07T01:22:03;101928.00;;;16.25;100.00
71638;BME280;59485;43.542;-5.676;2023-05-07T01:24:31;101924.00;;;16.28;100.00
71638;BME280;59485;43.542;-5.676;2023-05-07T01:26:56;101911.34;;;16.19;100.00
71638;BME280;59485;43.542;-5.676;2023-05-07T01:29:22;101924.63;;;16.30;100.00
71638;BME280;59485;43.542;-5.676;2023-05-07T01:31:47;101914.13;;;16.19;100.00
71638;BME280;59485;43.542;-5.676;2023-05-07T01:34:17;101878.97;;;15.91;100.00
71638;BME280;59485;43.542;-5.676;2023-05-07T01:36:42;101895.53;;;16.12;100.00
71638;BME280;59485;43.542;-5.676;2023-05-07T01:39:09;101905.31;;;16.08;100.00
71638;BME280;59485;43.542;-5.676;2023-05-07T01:41:35;101882.25;;;16.01;100.00
71638;BME280;59485;43.542;-5.676;2023-05-07T01:44:03;101901.16;;;16.19;100.00
71638;BME280;59485;43.542;-5.676;2023-05-07T01:46:29;101917.31;;;16.22;100.00
71638;BME280;59485;43.542;-5.676;2023-05-07T01:48:56;101891.72;;;16.13;100.00
71638;BME280;59485;43.542;-5.676;2023-05-07T01:51:22;101880.66;;;16.13;100.00
71638;BME280;59485;43.542;-5.676;2023-05-07T01:53:47;101901.00;;;16.27;100.00
71638;BME280;59485;43.542;-5.676;2023-05-07T01:56:17;101875.97;;;16.14;100.00
71638;BME280;59485;43.542;-5.676;2023-05-07T01:58:44;101859.06;;;16.02;100.00
71638;BME280;59485;43.542;-5.676;2023-05-07T02:01:11;101870.06;;;16.17;100.00
71638;BME280;59485;43.542;-5.676;2023-05-07T02:03:36;101877.72;;;16.22;100.00
71638;BME280;59485;43.542;-5.676;2023-05-07T02:06:02;101894.00;;;16.31;100.00
71638;BME280;59485;43.542;-5.676;2023-05-07T02:08:27;101900.00;;;16.35;100.00
71638;BME280;59485;43.542;-5.676;2023-05-07T02:10:53;101892.91;;;16.26;100.00
71638;BME280;59485;43.542;-5.676;2023-05-07T02:13:19;101904.19;;;16.31;100.00
71638;BME280;59485;43.542;-5.676;2023-05-07T02:15:45;101886.50;;;16.25;100.00
71638;BME280;59485;43.542;-5.676;2023-05-07T02:18:15;101881.97;;;16.18;100.00
71638;BME280;59485;43.542;-5.676;2023-05-07T02:20:41;101878.16;;;16.19;100.00
71638;BME280;59485;43.542;-5.676;2023-05-07T02:23:07;101868.16;;;16.18;100.00
71638;BME280;59485;43.542;-5.676;2023-05-07T02:25:32;101858.91;;;16.10;100.00
71638;BME280;59485;43.542;-5.676;2023-05-07T02:27:58;101859.56;;;16.12;100.00
71638;BME280;59485;43.542;-5.676;2023-05-07T02:30:24;101870.25;;;16.16;100.00
71638;BME280;59485;43.542;-5.676;2023-05-07T02:32:50;101859.31;;;16.07;100.00
71638;BME280;59485;43.542;-5.676;2023-05-07T02:35:16;101873.47;;;16.19;100.00
71638;BME280;59485;43.542;-5.676;2023-05-07T02:37:41;101881.56;;;16.21;100.00
71638;BME280;59485;43.542;-5.676;2023-05-07T02:40:07;101863.84;;;16.15;100.00
71638;BME280;59485;43.542;-5.676;2023-05-07T02:42:33;101873.47;;;16.19;100.00
71638;BME280;59485;43.542;-5.676;2023-05-07T02:44:58;101861.69;;;16.10;100.00
71638;BME280;59485;43.542;-5.676;2023-05-07T02:47:24;101874.91;;;16.15;100.00
71638;BME280;59485;43.542;-5.676;2023-05-07T02:49:52;101882.22;;;16.23;100.00
71638;BME280;59485;43.542;-5.676;2023-05-07T02:52:18;101893.13;;;16.31;100.00
71638;BME280;59485;43.542;-5.676;2023-05-07T02:54:43;101870.06;;;16.17;100.00
71638;BME280;59485;43.542;-5.676;2023-05-07T02:57:09;101893.56;;;16.28;100.00
71638;BME280;59485;43.542;-5.676;2023-05-07T02:59:35;101887.56;;;16.24;100.00
71638;BME280;59485;43.542;-5.676;2023-05-07T03:02:01;101885.31;;;16.13;100.00
71638;BME280;59485;43.542;-5.676;2023-05-07T03:04:26;101899.66;;;16.23;100.00
71638;BME280;59485;43.542;-5.676;2023-05-07T03:06:51;101896.72;;;16.25;100.00
71638;BME280;59485;43.542;-5.676;2023-05-07T03:09:17;101880.00;;;16.11;100.00
71638;BME280;59485;43.542;-5.676;2023-05-07T03:11:42;101878.03;;;16.05;100.00
71638;BME280;59485;43.542;-5.676;2023-05-07T03:14:08;101872.50;;;16.05;100.00
71638;BME280;59485;43.542;-5.676;2023-05-07T03:16:34;101894.88;;;16.10;100.00
71638;BME280;59485;43.542;-5.676;2023-05-07T03:18:59;101885.03;;;16.01;100.00
71638;BME280;59485;43.542;-5.676;2023-05-07T03:21:25;101875.41;;;15.97;100.00
71638;BME280;59485;43.542;-5.676;2023-05-07T03:23:51;101901.69;;;16.08;100.00
71638;BME280;59485;43.542;-5.676;2023-05-07T03:26:17;101892.84;;;15.98;100.00
71638;BME280;59485;43.542;-5.676;2023-05-07T03:28:42;101880.47;;;15.94;100.00
71638;BME280;59485;43.542;-5.676;2023-05-07T03:31:08;101896.66;;;15.97;100.00
71638;BME280;59485;43.542;-5.676;2023-05-07T03:33:34;101911.59;;;16.02;100.00
71638;BME280;59485;43.542;-5.676;2023-05-07T03:36:00;101894.44;;;15.86;100.00
71638;BME280;59485;43.542;-5.676;2023-05-07T03:38:26;101912.75;;;15.87;100.00
71638;BME280;59485;43.542;-5.676;2023-05-07T03:40:52;101875.72;;;15.66;100.00
71638;BME280;59485;43.542;-5.676;2023-05-07T03:43:17;101896.41;;;15.70;100.00
71638;BME280;59485;43.542;-5.676;2023-05-07T03:45:43;101918.78;;;15.75;100.00
71638;BME280;59485;43.542;-5.676;2023-05-07T03:48:08;101912.94;;;15.64;100.00
71638;BME280;59485;43.542;-5.676;2023-05-07T03:50:34;101911.16;;;15.56;100.00
71638;BME280;59485;43.542;-5.676;2023-05-07T03:52:59;101928.59;;;15.57;100.00
71638;BME280;59485;43.542;-5.676;2023-05-07T03:55:25;101914.75;;;15.42;100.00
71638;BME280;59485;43.542;-5.676;2023-05-07T03:57:51;101932.19;;;15.43;100.00
71638;BME280;59485;43.542;-5.676;2023-05-07T04:00:16;101946.69;;;15.45;100.00
71638;BME280;59485;43.542;-5.676;2023-05-07T04:02:42;101939.25;;;15.30;100.00
71638;BME280;59485;43.542;-5.676;2023-05-07T04:05:07;101942.69;;;15.32;100.00
71638;BME280;59485;43.542;-5.676;2023-05-07T04:07:33;101933.66;;;15.24;100.00
71638;BME280;59485;43.542;-5.676;2023-05-07T04:10:00;101944.78;;;15.30;100.00
71638;BME280;59485;43.542;-5.676;2023-05-07T04:12:25;101929.69;;;15.12;100.00
71638;BME280;59485;43.542;-5.676;2023-05-07T04:14:51;101942.84;;;15.10;100.00
71638;BME280;59485;43.542;-5.676;2023-05-07T04:17:16;101938.28;;;15.02;100.00
71638;BME280;59485;43.542;-5.676;2023-05-07T04:19:42;101930.34;;;14.99;100.00
71638;BME280;59485;43.542;-5.676;2023-05-07T04:22:11;101955.88;;;15.16;100.00
71638;BME280;59485;43.542;-5.676;2023-05-07T04:24:36;101936.81;;;15.06;100.00
71638;BME280;59485;43.542;-5.676;2023-05-07T04:27:02;101934.47;;;15.03;100.00
71638;BME280;59485;43.542;-5.676;2023-05-07T04:29:28;101922.56;;;15.02;100.00
71638;BME280;59485;43.542;-5.676;2023-05-07T04:31:53;101928.44;;;15.14;100.00
71638;BME280;59485;43.542;-5.676;2023-05-07T04:34:21;101915.22;;;15.10;100.00
71638;BME280;59485;43.542;-5.676;2023-05-07T04:36:47;101922.91;;;15.14;100.00
71638;BME280;59485;43.542;-5.676;2023-05-07T04:39:13;101922.25;;;15.12;100.00
71638;BME280;59485;43.542;-5.676;2023-05-07T04:41:38;101898.34;;;15.05;100.00
71638;BME280;59485;43.542;-5.676;2023-05-07T04:44:04;101932.44;;;15.26;100.00
71638;BME280;59485;43.542;-5.676;2023-05-07T04:46:31;101914.06;;;15.19;100.00
71638;BME280;59485;43.542;-5.676;2023-05-07T04:48:56;101914.72;;;15.21;100.00
71638;BME280;59485;43.542;-5.676;2023-05-07T04:51:22;101917.56;;;15.27;100.00
71638;BME280;59485;43.542;-5.676;2023-05-07T04:53:48;101925.00;;;15.27;100.00
71638;BME280;59485;43.542;-5.676;2023-05-07T04:56:14;101896.34;;;15.13;100.00
71638;BME280;59485;43.542;-5.676;2023-05-07T04:58:40;101926.78;;;15.34;100.00
71638;BME280;59485;43.542;-5.676;2023-05-07T05:01:05;101889.09;;;15.12;100.00
71638;BME280;59485;43.542;-5.676;2023-05-07T05:03:31;101922.31;;;15.33;100.00
71638;BME280;59485;43.542;-5.676;2023-05-07T05:05:56;101926.59;;;15.36;100.00
71638;BME280;59485;43.542;-5.676;2023-05-07T05:08:24;101929.19;;;15.37;100.00
71638;BME280;59485;43.542;-5.676;2023-05-07T05:10:50;101928.13;;;15.38;100.00
71638;BME280;59485;43.542;-5.676;2023-05-07T05:13:16;101908.63;;;15.25;100.00
71638;BME280;59485;43.542;-5.676;2023-05-07T05:15:41;101919.19;;;15.22;100.00
71638;BME280;59485;43.542;-5.676;2023-05-07T05:18:07;101916.22;;;15.23;100.00
71638;BME280;59485;43.542;-5.676;2023-05-07T05:20:32;101937.59;;;15.29;100.00
71638;BME280;59485;43.542;-5.676;2023-05-07T05:22:58;101928.72;;;15.19;100.00
71638;BME280;59485;43.542;-5.676;2023-05-07T05:25:24;101916.53;;;15.14;100.00
71638;BME280;59485;43.542;-5.676;2023-05-07T05:27:49;101930.44;;;15.20;100.00
71638;BME280;59485;43.542;-5.676;2023-05-07T05:30:15;101946.25;;;15.26;100.00
71638;BME280;59485;43.542;-5.676;2023-05-07T05:32:40;101949.88;;;15.27;100.00
71638;BME280;59485;43.542;-5.676;2023-05-07T05:35:06;101951.94;;;15.25;100.00
71638;BME280;59485;43.542;-5.676;2023-05-07T05:37:32;101963.19;;;15.23;100.00
71638;BME280;59485;43.542;-5.676;2023-05-07T05:39:57;101948.53;;;15.23;100.00
71638;BME280;59485;43.542;-5.676;2023-05-07T05:42:23;101963.94;;;15.32;100.00
71638;BME280;59485;43.542;-5.676;2023-05-07T05:44:48;101980.22;;;15.42;100.00
71638;BME280;59485;43.542;-5.676;2023-05-07T05:47:14;101955.28;;;15.35;100.00
71638;BME280;59485;43.542;-5.676;2023-05-07T05:49:39;101974.78;;;15.48;100.00
71638;BME280;59485;43.542;-5.676;2023-05-07T05:52:05;101970.88;;;15.43;100.00
71638;BME280;59485;43.542;-5.676;2023-05-07T05:54:31;101980.97;;;15.50;100.00
71638;BME280;59485;43.542;-5.676;2023-05-07T05:56:56;101946.63;;;15.38;100.00
71638;BME280;59485;43.542;-5.676;2023-05-07T05:59:22;101958.69;;;15.52;100.00
71638;BME280;59485;43.542;-5.676;2023-05-07T06:01:48;101982.16;;;15.56;100.00
71638;BME280;59485;43.542;-5.676;2023-05-07T06:04:13;101992.91;;;15.65;100.00
71638;BME280;59485;43.542;-5.676;2023-05-07T06:06:39;101986.91;;;15.62;100.00
71638;BME280;59485;43.542;-5.676;2023-05-07T06:09:04;101974.06;;;15.54;100.00
71638;BME280;59485;43.542;-5.676;2023-05-07T06:11:31;101989.28;;;15.65;100.00
71638;BME280;59485;43.542;-5.676;2023-05-07T06:13:56;101995.06;;;15.70;100.00
71638;BME280;59485;43.542;-5.676;2023-05-07T06:16:22;101991.66;;;15.68;100.00
71638;BME280;59485;43.542;-5.676;2023-05-07T06:18:47;101994.28;;;15.76;100.00
71638;BME280;59485;43.542;-5.676;2023-05-07T06:21:13;102005.91;;;15.86;100.00
71638;BME280;59485;43.542;-5.676;2023-05-07T06:23:39;102018.69;;;15.87;100.00
71638;BME280;59485;43.542;-5.676;2023-05-07T06:26:06;102022.78;;;15.91;100.00
71638;BME280;59485;43.542;-5.676;2023-05-07T06:28:35;102020.28;;;15.96;100.00
71638;BME280;59485;43.542;-5.676;2023-05-07T06:31:15;101984.38;;;15.82;100.00
71638;BME280;59485;43.542;-5.676;2023-05-07T06:33:43;102009.09;;;16.04;100.00
71638;BME280;59485;43.542;-5.676;2023-05-07T06:36:08;101973.00;;;15.91;100.00
71638;BME280;59485;43.542;-5.676;2023-05-07T06:38:34;101998.69;;;16.06;100.00
71638;BME280;59485;43.542;-5.676;2023-05-07T06:40:59;101997.63;;;16.07;100.00
71638;BME280;59485;43.542;-5.676;2023-05-07T06:43:25;102012.63;;;16.20;100.00
71638;BME280;59485;43.542;-5.676;2023-05-07T06:45:50;101971.16;;;15.98;100.00
71638;BME280;59485;43.542;-5.676;2023-05-07T06:48:16;102019.31;;;16.25;100.00
71638;BME280;59485;43.542;-5.676;2023-05-07T06:50:42;101990.63;;;16.11;100.00
71638;BME280;59485;43.542;-5.676;2023-05-07T06:53:07;102009.78;;;16.28;100.00
71638;BME280;59485;43.542;-5.676;2023-05-07T06:55:33;102003.16;;;16.29;100.00
71638;BME280;59485;43.542;-5.676;2023-05-07T06:57:58;102010.94;;;16.40;100.00
71638;BME280;59485;43.542;-5.676;2023-05-07T07:00:27;102011.84;;;16.47;100.00
71638;BME280;59485;43.542;-5.676;2023-05-07T07:02:53;102010.41;;;16.51;100.00
71638;BME280;59485;43.542;-5.676;2023-05-07T07:05:19;102002.50;;;16.48;100.00
71638;BME280;59485;43.542;-5.676;2023-05-07T07:07:44;102012.06;;;16.67;100.00
71638;BME280;59485;43.542;-5.676;2023-05-07T07:10:10;102000.31;;;16.65;100.00
71638;BME280;59485;43.542;-5.676;2023-05-07T07:12:35;102023.41;;;16.72;100.00
71638;BME280;59485;43.542;-5.676;2023-05-07T07:15:01;102019.16;;;16.76;100.00
71638;BME280;59485;43.542;-5.676;2023-05-07T07:17:27;102021.34;;;16.80;100.00
71638;BME280;59485;43.542;-5.676;2023-05-07T07:19:53;102017.53;;;16.81;100.00
71638;BME280;59485;43.542;-5.676;2023-05-07T07:22:19;102018.81;;;16.85;100.00
71638;BME280;59485;43.542;-5.676;2023-05-07T07:24:44;102021.59;;;16.85;100.00
71638;BME280;59485;43.542;-5.676;2023-05-07T07:27:11;102027.63;;;16.96;100.00
71638;BME280;59485;43.542;-5.676;2023-05-07T07:29:36;102032.34;;;17.02;100.00
71638;BME280;59485;43.542;-5.676;2023-05-07T07:32:02;102033.84;;;16.98;100.00
71638;BME280;59485;43.542;-5.676;2023-05-07T07:34:28;102017.38;;;16.90;100.00
71638;BME280;59485;43.542;-5.676;2023-05-07T07:36:53;102035.19;;;17.08;100.00
71638;BME280;59485;43.542;-5.676;2023-05-07T07:39:19;102021.53;;;17.07;100.00
71638;BME280;59485;43.542;-5.676;2023-05-07T07:41:44;102029.06;;;17.19;100.00
71638;BME280;59485;43.542;-5.676;2023-05-07T07:44:10;102034.44;;;17.27;100.00
71638;BME280;59485;43.542;-5.676;2023-05-07T07:46:38;102041.28;;;17.25;100.00
71638;BME280;59485;43.542;-5.676;2023-05-07T07:49:03;102040.00;;;17.27;100.00
71638;BME280;59485;43.542;-5.676;2023-05-07T07:51:29;102046.88;;;17.38;100.00
71638;BME280;59485;43.542;-5.676;2023-05-07T07:53:55;102037.91;;;17.36;100.00
71638;BME280;59485;43.542;-5.676;2023-05-07T07:56:23;102043.34;;;17.51;100.00
71638;BME280;59485;43.542;-5.676;2023-05-07T07:58:48;102039.06;;;17.48;100.00
71638;BME280;59485;43.542;-5.676;2023-05-07T08:01:14;102041.44;;;17.51;100.00
71638;BME280;59485;43.542;-5.676;2023-05-07T08:03:39;102046.34;;;17.56;100.00
71638;BME280;59485;43.542;-5.676;2023-05-07T08:06:05;102046.00;;;17.66;100.00
71638;BME280;59485;43.542;-5.676;2023-05-07T08:08:31;102043.81;;;17.61;100.00
71638;BME280;59485;43.542;-5.676;2023-05-07T08:10:56;102052.69;;;17.78;100.00
71638;BME280;59485;43.542;-5.676;2023-05-07T08:13:22;102053.16;;;17.88;100.00
71638;BME280;59485;43.542;-5.676;2023-05-07T08:15:47;102046.69;;;17.81;100.00
71638;BME280;59485;43.542;-5.676;2023-05-07T08:18:13;102053.81;;;17.96;100.00
71638;BME280;59485;43.542;-5.676;2023-05-07T08:20:39;102059.59;;;18.02;100.00
71638;BME280;59485;43.542;-5.676;2023-05-07T08:23:05;102053.19;;;18.08;100.00
71638;BME280;59485;43.542;-5.676;2023-05-07T08:25:34;102052.59;;;18.12;100.00
71638;BME280;59485;43.542;-5.676;2023-05-07T08:28:00;102057.72;;;18.15;100.00
71638;BME280;59485;43.542;-5.676;2023-05-07T08:30:26;102070.75;;;18.15;100.00
71638;BME280;59485;43.542;-5.676;2023-05-07T08:32:52;102062.34;;;17.95;100.00
71638;BME280;59485;43.542;-5.676;2023-05-07T08:35:17;102057.41;;;17.84;100.00
71638;BME280;59485;43.542;-5.676;2023-05-07T08:37:43;102070.69;;;17.95;100.00
71638;BME280;59485;43.542;-5.676;2023-05-07T08:40:09;102070.38;;;17.70;100.00
71638;BME280;59485;43.542;-5.676;2023-05-07T08:42:36;102080.72;;;17.61;100.00
71638;BME280;59485;43.542;-5.676;2023-05-07T08:45:05;102078.03;;;17.40;100.00
71638;BME280;59485;43.542;-5.676;2023-05-07T08:47:44;102095.72;;;17.39;100.00
71638;BME280;59485;43.542;-5.676;2023-05-07T08:50:11;102084.47;;;17.47;100.00
71638;BME280;59485;43.542;-5.676;2023-05-07T08:52:37;102103.59;;;17.36;100.00
71638;BME280;59485;43.542;-5.676;2023-05-07T08:55:04;102107.66;;;17.40;100.00
71638;BME280;59485;43.542;-5.676;2023-05-07T08:57:30;102113.97;;;17.27;100.00
71638;BME280;59485;43.542;-5.676;2023-05-07T08:59:56;102115.53;;;17.36;100.00
71638;BME280;59485;43.542;-5.676;2023-05-07T09:02:21;102118.88;;;17.25;100.00
71638;BME280;59485;43.542;-5.676;2023-05-07T09:04:47;102117.13;;;17.17;100.00
71638;BME280;59485;43.542;-5.676;2023-05-07T09:07:13;102125.53;;;17.09;100.00
71638;BME280;59485;43.542;-5.676;2023-05-07T09:09:38;102117.59;;;17.00;100.00
71638;BME280;59485;43.542;-5.676;2023-05-07T09:12:04;102134.16;;;16.93;100.00
71638;BME280;59485;43.542;-5.676;2023-05-07T09:14:29;102138.69;;;17.01;100.00
71638;BME280;59485;43.542;-5.676;2023-05-07T09:16:58;102141.06;;;17.04;100.00
71638;BME280;59485;43.542;-5.676;2023-05-07T09:19:26;102139.09;;;16.98;100.00
71638;BME280;59485;43.542;-5.676;2023-05-07T09:21:59;102132.84;;;16.89;100.00
71638;BME280;59485;43.542;-5.676;2023-05-07T09:24:26;102132.44;;;16.92;100.00
71638;BME280;59485;43.542;-5.676;2023-05-07T09:26:53;102131.22;;;17.01;100.00
71638;BME280;59485;43.542;-5.676;2023-05-07T09:29:21;102137.09;;;17.13;100.00
71638;BME280;59485;43.542;-5.676;2023-05-07T09:31:46;102135.66;;;17.17;100.00
71638;BME280;59485;43.542;-5.676;2023-05-07T09:34:11;102139.22;;;17.11;100.00
71638;BME280;59485;43.542;-5.676;2023-05-07T09:36:37;102138.66;;;17.22;100.00
71638;BME280;59485;43.542;-5.676;2023-05-07T09:39:03;102143.25;;;17.36;100.00
71638;BME280;59485;43.542;-5.676;2023-05-07T09:41:30;102144.56;;;17.40;100.00
71638;BME280;59485;43.542;-5.676;2023-05-07T09:43:57;102136.44;;;17.39;100.00
71638;BME280;59485;43.542;-5.676;2023-05-07T09:46:30;102150.22;;;17.53;100.00
71638;BME280;59485;43.542;-5.676;2023-05-07T09:49:01;102155.50;;;17.48;100.00
71638;BME280;59485;43.542;-5.676;2023-05-07T09:51:51;102150.25;;;17.60;100.00
71638;BME280;59485;43.542;-5.676;2023-05-07T09:54:17;102143.94;;;17.66;100.00
71638;BME280;59485;43.542;-5.676;2023-05-07T09:56:44;102145.41;;;17.62;100.00
71638;BME280;59485;43.542;-5.676;2023-05-07T09:59:14;102154.81;;;17.68;100.00
71638;BME280;59485;43.542;-5.676;2023-05-07T10:01:42;102161.22;;;17.68;100.00
71638;BME280;59485;43.542;-5.676;2023-05-07T10:04:08;102159.16;;;17.77;100.00
71638;BME280;59485;43.542;-5.676;2023-05-07T10:06:35;102159.00;;;17.91;100.00
71638;BME280;59485;43.542;-5.676;2023-05-07T10:09:03;102157.09;;;17.92;100.00
71638;BME280;59485;43.542;-5.676;2023-05-07T10:11:29;102164.06;;;17.81;100.00
71638;BME280;59485;43.542;-5.676;2023-05-07T10:13:57;102174.75;;;17.84;100.00
71638;BME280;59485;43.542;-5.676;2023-05-07T10:16:23;102169.47;;;17.89;100.00
71638;BME280;59485;43.542;-5.676;2023-05-07T10:18:50;102178.00;;;17.88;100.00
71638;BME280;59485;43.542;-5.676;2023-05-07T10:21:18;102178.44;;;17.91;100.00
71638;BME280;59485;43.542;-5.676;2023-05-07T10:23:56;102184.19;;;17.90;100.00
71638;BME280;59485;43.542;-5.676;2023-05-07T10:26:24;102188.47;;;17.92;100.00
71638;BME280;59485;43.542;-5.676;2023-05-07T10:28:56;102201.66;;;17.84;100.00
71638;BME280;59485;43.542;-5.676;2023-05-07T10:34:24;102209.81;;;17.64;100.00
71638;BME280;59485;43.542;-5.676;2023-05-07T10:36:52;102216.19;;;17.86;100.00
71638;BME280;59485;43.542;-5.676;2023-05-07T10:39:19;102221.38;;;17.95;100.00
71638;BME280;59485;43.542;-5.676;2023-05-07T10:41:46;102204.53;;;17.69;100.00
71638;BME280;59485;43.542;-5.676;2023-05-07T10:44:11;102224.22;;;17.81;100.00
71638;BME280;59485;43.542;-5.676;2023-05-07T10:46:42;102215.22;;;17.72;100.00
71638;BME280;59485;43.542;-5.676;2023-05-07T10:49:08;102228.44;;;17.70;100.00
71638;BME280;59485;43.542;-5.676;2023-05-07T10:51:36;102224.34;;;17.66;100.00
71638;BME280;59485;43.542;-5.676;2023-05-07T10:56:42;102227.94;;;17.88;100.00
71638;BME280;59485;43.542;-5.676;2023-05-07T11:01:59;102216.19;;;17.86;100.00
71638;BME280;59485;43.542;-5.676;2023-05-07T11:04:28;102226.94;;;17.68;100.00
71638;BME280;59485;43.542;-5.676;2023-05-07T11:15:06;102238.53;;;17.56;100.00
71638;BME280;59485;43.542;-5.676;2023-05-07T11:17:32;102243.03;;;17.57;100.00
71638;BME280;59485;43.542;-5.676;2023-05-07T11:20:01;102231.94;;;17.79;100.00
71638;BME280;59485;43.542;-5.676;2023-05-07T11:24:56;102240.44;;;17.77;100.00
71638;BME280;59485;43.542;-5.676;2023-05-07T11:27:28;102226.72;;;17.69;100.00
71638;BME280;59485;43.542;-5.676;2023-05-07T11:29:54;102231.50;;;17.82;100.00
71638;BME280;59485;43.542;-5.676;2023-05-07T11:32:29;102218.91;;;17.79;100.00
71638;BME280;59485;43.542;-5.676;2023-05-07T11:34:59;102215.69;;;17.54;100.00
71638;BME280;59485;43.542;-5.676;2023-05-07T11:37:26;102222.03;;;17.70;100.00
71638;BME280;59485;43.542;-5.676;2023-05-07T11:40:06;102238.22;;;17.94;100.00
71638;BME280;59485;43.542;-5.676;2023-05-07T11:42:37;102238.09;;;17.81;100.00
71638;BME280;59485;43.542;-5.676;2023-05-07T11:45:04;102233.41;;;17.81;100.00
71638;BME280;59485;43.542;-5.676;2023-05-07T11:47:31;102233.50;;;17.88;100.00
71638;BME280;59485;43.542;-5.676;2023-05-07T11:49:56;102233.03;;;17.84;100.00
71638;BME280;59485;43.542;-5.676;2023-05-07T11:52:23;102245.09;;;17.70;100.00
71638;BME280;59485;43.542;-5.676;2023-05-07T11:54:50;102245.03;;;17.63;100.00
71638;BME280;59485;43.542;-5.676;2023-05-07T11:57:15;102234.31;;;17.60;100.00
71638;BME280;59485;43.542;-5.676;2023-05-07T11:59:41;102257.56;;;17.59;100.00
71638;BME280;59485;43.542;-5.676;2023-05-07T12:02:07;102254.78;;;17.59;100.00
71638;BME280;59485;43.542;-5.676;2023-05-07T12:04:33;102252.34;;;17.71;100.00
71638;BME280;59485;43.542;-5.676;2023-05-07T12:06:59;102245.94;;;17.71;100.00
71638;BME280;59485;43.542;-5.676;2023-05-07T12:09:24;102250.41;;;17.72;100.00
71638;BME280;59485;43.542;-5.676;2023-05-07T12:11:51;102237.06;;;17.82;100.00
71638;BME280;59485;43.542;-5.676;2023-05-07T12:14:17;102246.53;;;17.94;100.00
71638;BME280;59485;43.542;-5.676;2023-05-07T12:16:43;102247.41;;;17.94;100.00
71638;BME280;59485;43.542;-5.676;2023-05-07T12:19:11;102242.84;;;18.15;100.00
71638;BME280;59485;43.542;-5.676;2023-05-07T12:21:40;102241.19;;;18.27;100.00
71638;BME280;59485;43.542;-5.676;2023-05-07T12:24:06;102248.91;;;18.31;100.00
71638;BME280;59485;43.542;-5.676;2023-05-07T12:26:31;102251.66;;;18.25;100.00
71638;BME280;59485;43.542;-5.676;2023-05-07T12:28:57;102252.09;;;18.28;100.00
71638;BME280;59485;43.542;-5.676;2023-05-07T12:31:25;102245.94;;;18.33;100.00
71638;BME280;59485;43.542;-5.676;2023-05-07T12:33:51;102255.50;;;18.24;100.00
71638;BME280;59485;43.542;-5.676;2023-05-07T12:36:17;102256.25;;;18.11;100.00
71638;BME280;59485;43.542;-5.676;2023-05-07T12:38:43;102253.88;;;18.08;100.00
71638;BME280;59485;43.542;-5.676;2023-05-07T12:41:10;102251.94;;;18.02;100.00
71638;BME280;59485;43.542;-5.676;2023-05-07T12:43:36;102258.56;;;18.08;100.00
71638;BME280;59485;43.542;-5.676;2023-05-07T12:46:04;102252.59;;;18.04;100.00